Overseas Long Beach — WAAT — position and weather

sailwx.info

Track history (hours):
 
Tides and Currents Weather Stations Pressure Air Temp Water Temp Dewpoint Dewpoint Depression Visibility Wind Speed Wind Dir Waves Ship Positions

Overseas Long Beach

Owner: ASC Leasing II, Inc., Philadelphia, PA. More information available from US FCC via Universal Licensing System and Coast Guard Vessel Documentation Center.

Last reported at 2015-Jul-01 00:33 UTC. Time now 2015-Jul-07 11:02 UTC.
Position N 25°32' W 086°23'.

Length 181 m; draft 7.7 m.

Type: Tanker. MMSI: 367703000.

Date/timePositionNaut miles runAvg speedWind from/ knotsBaromVisibWave heightAir tempDewpointWater temp
2015-Jul-01 00:33N 25°32' W 086°23'6615.9
2015-Jun-30 20:23N 25°11' W 085°14'28212.1
2015-Jun-29 21:08N 25°20' W 080°02'711.7
2015-Jun-29 20:33N 25°27' W 080°01'1211.5
2015-Jun-29 19:33N 25°38' W 080°00'1111.4
2015-Jun-29 18:33N 25°50' W 079°59'1111.5
2015-Jun-29 17:33N 26°01' W 079°59'1211.7
2015-Jun-29 16:33N 26°13' W 079°58'1211.8
2015-Jun-29 15:33N 26°25' W 079°58'1212.0
2015-Jun-29 14:34N 26°37' W 079°58'1212.0
2015-Jun-29 13:34N 26°49' W 079°57'1111.4
2015-Jun-29 12:34N 26°60' W 079°57'1110.7
2015-Jun-29 11:30N 27°11' W 079°59'1110.5
2015-Jun-29 10:26N 27°22' W 080°00'  
2015-Jun-25 01:32N 39°19' W 073°52'1414.0
2015-Jun-25 00:34N 39°33' W 073°52'1413.9
2015-Jun-24 23:33N 39°47' W 073°51'1413.7
2015-Jun-24 22:34N 40°00' W 073°50'1513.7
2015-Jun-24 21:29N 40°15' W 073°49'1212.8
2015-Jun-24 20:33N 40°27' W 073°52'1211.8
2015-Jun-24 19:33N 40°35' W 074°02'7 7.0
2015-Jun-24 18:33N 40°39' W 074°11'4 0.1
2015-Jun-22 18:25N 40°35' W 074°13'2 2.4
2015-Jun-22 17:33N 40°33' W 074°14'4 3.0
2015-Jun-22 16:18N 40°30' W 074°11'810.8
2015-Jun-22 15:33N 40°29' W 074°01'7 5.3
2015-Jun-22 14:19N 40°24' W 073°55'0 0.0
2015-Jun-22 13:13N 40°24' W 073°55'0 0.0
2015-Jun-22 12:16N 40°24' W 073°55'0 0.0
2015-Jun-22 11:31N 40°24' W 073°55'0 0.0
2015-Jun-22 10:28N 40°24' W 073°55'0 0.0
2015-Jun-22 09:25N 40°24' W 073°55'0 0.0
2015-Jun-22 08:25N 40°24' W 073°55'0 0.0
2015-Jun-22 07:13N 40°24' W 073°55'0 0.0
2015-Jun-22 06:25N 40°24' W 073°55'0 0.1
2015-Jun-22 05:31N 40°24' W 073°55'0 0.0
2015-Jun-22 01:28N 40°24' W 073°55'0 0.0
2015-Jun-22 00:28N 40°24' W 073°55'0 0.1
2015-Jun-21 23:31N 40°24' W 073°55'0 0.0
2015-Jun-21 22:31N 40°24' W 073°55'0 0.0
2015-Jun-21 21:04N 40°24' W 073°55'0 0.0
2015-Jun-21 20:13N 40°24' W 073°55'1 0.9
2015-Jun-21 19:23N 40°23' W 073°55'6 7.6
2015-Jun-21 18:33N 40°21' W 073°47'  
Track history (hours):
 
Tides and Currents Weather Stations Pressure Air Temp Water Temp Dewpoint Dewpoint Depression Visibility Wind Speed Wind Dir Waves Ship Positions

Overseas Long Beach

Owner: ASC Leasing II, Inc., Philadelphia, PA. More information available from US FCC via Universal Licensing System and Coast Guard Vessel Documentation Center.

Last reported at 2015-Jul-01 00:33 UTC. Time now 2015-Jul-07 11:02 UTC.
Position N 25°32' W 086°23'.

Length 181 m; draft 7.7 m.

Type: Tanker. MMSI: 367703000.

Date/timePositionNaut miles runAvg speedWind from/ knotsBaromVisibWave heightAir tempDewpointWater temp
2015-Jul-01 00:33N 25°32' W 086°23'6615.9
2015-Jun-30 20:23N 25°11' W 085°14'28212.1
2015-Jun-29 21:08N 25°20' W 080°02'711.7
2015-Jun-29 20:33N 25°27' W 080°01'1211.5
2015-Jun-29 19:33N 25°38' W 080°00'1111.4
2015-Jun-29 18:33N 25°50' W 079°59'1111.5
2015-Jun-29 17:33N 26°01' W 079°59'1211.7
2015-Jun-29 16:33N 26°13' W 079°58'1211.8
2015-Jun-29 15:33N 26°25' W 079°58'1212.0
2015-Jun-29 14:34N 26°37' W 079°58'1212.0
2015-Jun-29 13:34N 26°49' W 079°57'1111.4
2015-Jun-29 12:34N 26°60' W 079°57'1110.7
2015-Jun-29 11:30N 27°11' W 079°59'1110.5
2015-Jun-29 10:26N 27°22' W 080°00'  
2015-Jun-25 01:32N 39°19' W 073°52'1414.0
2015-Jun-25 00:34N 39°33' W 073°52'1413.9
2015-Jun-24 23:33N 39°47' W 073°51'1413.7
2015-Jun-24 22:34N 40°00' W 073°50'1513.7
2015-Jun-24 21:29N 40°15' W 073°49'1212.8
2015-Jun-24 20:33N 40°27' W 073°52'1211.8
2015-Jun-24 19:33N 40°35' W 074°02'7 7.0
2015-Jun-24 18:33N 40°39' W 074°11'4 0.1
2015-Jun-22 18:25N 40°35' W 074°13'2 2.4
2015-Jun-22 17:33N 40°33' W 074°14'4 3.0
2015-Jun-22 16:18N 40°30' W 074°11'810.8
2015-Jun-22 15:33N 40°29' W 074°01'7 5.3
2015-Jun-22 14:19N 40°24' W 073°55'0 0.0
2015-Jun-22 13:13N 40°24' W 073°55'0 0.0
2015-Jun-22 12:16N 40°24' W 073°55'0 0.0
2015-Jun-22 11:31N 40°24' W 073°55'0 0.0
2015-Jun-22 10:28N 40°24' W 073°55'0 0.0
2015-Jun-22 09:25N 40°24' W 073°55'0 0.0
2015-Jun-22 08:25N 40°24' W 073°55'0 0.0
2015-Jun-22 07:13N 40°24' W 073°55'0 0.0
2015-Jun-22 06:25N 40°24' W 073°55'0 0.1
2015-Jun-22 05:31N 40°24' W 073°55'0 0.0
2015-Jun-22 01:28N 40°24' W 073°55'0 0.0
2015-Jun-22 00:28N 40°24' W 073°55'0 0.1
2015-Jun-21 23:31N 40°24' W 073°55'0 0.0
2015-Jun-21 22:31N 40°24' W 073°55'0 0.0
2015-Jun-21 21:04N 40°24' W 073°55'0 0.0
2015-Jun-21 20:13N 40°24' W 073°55'1 0.9
2015-Jun-21 19:23N 40°23' W 073°55'6 7.6
2015-Jun-21 18:33N 40°21' W 073°47'  

Dump ship's entire track history